Hominy, Oklahoma
Current Conditions -  °F | °C
As of 7:15 AM on Friday 24 Oct 2014 (Local Time) from KOWP Reporting Station
Clear Clear  
Wind Chill: 60°   Ceiling: Unl
Heat Index: 60°   Visibility: 10mi
Dew Point: 54°   Wind: 5mph
Humidity: 80%   Direction: 190°S
Pressure: 30.11"   Gusts: NA
Location:  36.41°N, 96.4°W
Report Text: KOWP 241215Z AUTO 19004KT 10SM CLR 16/12 A3011 RMK AO2 T01550120
Loading
Personal Weather Stations






























Interactive Weather Map
Tropical Storm Tracking
New forecast layout! Learn more

10-Day Weather Forecast

Advertisements
Track Severe Weather on mobile